Time;durP1;ratioP1;P1;durP2;ratioP2;P2;SDS_P1;SDS_P2;PMS_P1;PMS_P2;Temp;Humidity;BMP_temperature;BMP_pressure;BME280_temperature;BME280_humidity;BME280_pressure;Samples;Min_cycle;Max_cycle;Signal;HPM_P1;HPM_P2
2021/04/21 00:01:45;;;;;;;15.65;9.03;;;;;;;7.94;81.06;100529.71;1840140;78;21171;-58
2021/04/21 00:04:13;;;;;;;13.40;8.45;;;;;;;7.95;81.45;100536.80;1840381;78;21493;-58
2021/04/21 00:06:41;;;;;;;15.63;8.83;;;;;;;7.95;81.99;100532.80;1840237;78;21461;-58
2021/04/21 00:09:15;;;;;;;18.75;9.15;;;;;;;7.94;82.04;100538.17;1840427;78;21060;-57
2021/04/21 00:11:43;;;;;;;15.38;8.98;;;;;;;7.92;82.36;100540.89;1840377;78;21359;-58
2021/04/21 00:14:16;;;;;;;15.45;8.58;;;;;;;7.85;82.64;100539.32;1840310;78;21147;-58
2021/04/21 00:16:44;;;;;;;14.25;8.53;;;;;;;7.82;82.80;100538.05;1840412;78;21496;-58
2021/04/21 00:19:12;;;;;;;15.05;8.95;;;;;;;7.80;83.25;100545.22;1840355;78;21053;-58
2021/04/21 00:21:40;;;;;;;13.85;8.75;;;;;;;7.78;83.36;100543.05;1840384;77;21072;-58
2021/04/21 00:24:08;;;;;;;16.07;9.33;;;;;;;7.77;83.39;100537.30;1846324;77;21184;-59
2021/04/21 00:26:37;;;;;;;13.53;8.40;;;;;;;7.76;83.41;100540.88;1846258;77;21147;-58
2021/04/21 00:29:05;;;;;;;16.55;9.33;;;;;;;7.73;83.42;100544.50;1846292;77;21099;-57
2021/04/21 00:31:34;;;;;;;13.85;8.98;;;;;;;7.71;83.60;100539.22;1846357;77;21147;-58
2021/04/21 00:34:01;;;;;;;15.78;9.30;;;;;;;7.70;83.90;100548.14;1846294;77;21048;-59
2021/04/21 00:36:32;;;;;;;14.85;9.10;;;;;;;7.69;84.14;100543.73;1818719;77;22725;-57
2021/04/21 00:39:00;;;;;;;13.68;8.65;;;;;;;7.67;84.24;100550.90;1846303;77;20981;-59
2021/04/21 00:41:39;;;;;;;17.98;8.83;;;;;;;7.69;84.32;100552.17;1846308;77;21186;-57
2021/04/21 00:44:43;;;;;;;17.05;9.25;;;;;;;7.69;84.61;100550.39;1846259;77;21096;-57
2021/04/21 00:47:26;;;;;;;13.38;8.88;;;;;;;7.68;85.12;100553.98;1846284;77;21048;-57
2021/04/21 00:50:14;;;;;;;16.10;8.50;;;;;;;7.68;85.65;100555.31;1767412;77;21345;-56
2021/04/21 00:53:09;;;;;;;16.50;9.13;;;;;;;7.69;85.93;100558.41;1846379;77;21469;-57
2021/04/21 00:55:50;;;;;;;15.83;9.20;;;;;;;7.69;86.09;100551.73;1846510;77;21575;-57
2021/04/21 00:58:42;;;;;;;16.85;8.88;;;;;;;7.69;86.21;100559.73;1773108;79;21062;-59
2021/04/21 01:01:10;;;;;;;20.43;10.35;;;;;;;7.67;86.62;100558.91;1799185;79;21077;-58
2021/04/21 01:03:41;;;;;;;13.40;8.73;;;;;;;7.66;86.95;100559.82;1745377;79;22267;-57
2021/04/21 01:06:17;;;;;;;13.60;9.05;;;;;;;7.65;86.99;100563.41;1799151;79;21067;-58
2021/04/21 01:08:49;;;;;;;17.75;8.85;;;;;;;7.67;87.35;100571.35;1799107;79;20990;-58
2021/04/21 01:11:36;;;;;;;17.10;9.03;;;;;;;7.66;87.48;100568.27;1799100;79;21557;-58
2021/04/21 01:14:15;;;;;;;14.23;9.00;;;;;;;7.67;87.69;100574.91;1773602;79;21117;-58
2021/04/21 01:16:43;;;;;;;15.58;9.23;;;;;;;7.68;87.71;100575.77;1798906;79;21708;-58
2021/04/21 01:19:35;;;;;;;14.10;8.90;;;;;;;7.66;87.68;100579.83;1799165;79;21196;-58
2021/04/21 01:22:29;;;;;;;13.70;8.05;;;;;;;7.67;87.60;100575.36;1798571;79;21133;-58
2021/04/21 01:25:15;;;;;;;14.70;8.55;;;;;;;7.68;87.58;100575.77;1782171;80;21094;-57
2021/04/21 01:28:02;;;;;;;12.37;7.50;;;;;;;7.70;87.46;100577.50;1782135;79;21038;-57
2021/04/21 01:30:31;;;;;;;12.07;7.90;;;;;;;7.71;87.35;100583.25;1782178;80;21466;-57
2021/04/21 01:33:02;;;;;;;10.45;7.72;;;;;;;7.71;87.20;100584.59;1752010;80;21093;-57
2021/04/21 01:35:30;;;;;;;14.45;8.00;;;;;;;7.71;87.03;100583.25;1782198;80;20920;-57
2021/04/21 01:38:02;;;;;;;13.90;7.83;;;;;;;7.70;86.83;100586.84;1782096;80;21109;-58
2021/04/21 01:40:40;;;;;;;11.40;7.60;;;;;;;7.71;86.64;100584.59;1782203;80;21058;-57
2021/04/21 01:43:19;;;;;;;13.55;8.10;;;;;;;7.72;86.38;100585.45;1782196;80;22172;-57
2021/04/21 01:45:56;;;;;;;13.13;7.67;;;;;;;7.71;86.10;100584.59;1782151;79;21347;-57
2021/04/21 01:48:26;;;;;;;13.03;7.62;;;;;;;7.71;85.86;100580.59;1782189;80;21181;-57
2021/04/21 01:50:54;;;;;;;11.33;7.33;;;;;;;7.69;85.64;100581.09;1782043;80;21169;-58
2021/04/21 01:53:45;;;;;;;11.15;7.00;;;;;;;7.70;85.51;100576.61;1782181;80;21055;-57
2021/04/21 01:56:24;;;;;;;13.10;7.45;;;;;;;7.69;85.37;100578.42;1786351;78;21375;-57
2021/04/21 01:59:03;;;;;;;12.00;6.95;;;;;;;7.70;85.24;100580.17;1840284;78;21036;-57
2021/04/21 02:02:05;;;;;;;11.28;7.10;;;;;;;7.69;85.13;100583.75;1840324;78;21056;-58
2021/04/21 02:05:19;;;;;;;11.90;7.13;;;;;;;7.60;84.99;100583.97;1873194;76;27487;-56
2021/04/21 02:08:02;;;;;;;11.40;7.53;;;;;;;7.60;84.99;100583.97;1841095;78;20985;-57
2021/04/21 02:11:14;;;;;;;10.63;7.17;;;;;;;7.54;85.00;100587.69;1841230;78;21183;-58
2021/04/21 02:14:26;;;;;;;11.78;7.20;;;;;;;7.52;85.00;100586.86;1840908;78;21005;-57
2021/04/21 02:17:34;;;;;;;12.35;7.67;;;;;;;7.48;85.04;100592.30;1841085;78;20930;-57
2021/04/21 02:20:19;;;;;;;10.53;7.55;;;;;;;7.40;84.99;100588.00;1841134;78;21012;-57
2021/04/21 02:22:58;;;;;;;16.50;7.65;;;;;;;7.35;84.97;100588.58;1814295;78;20937;-57
2021/04/21 02:25:46;;;;;;;10.58;7.20;;;;;;;7.31;85.21;100593.58;1841190;78;21527;-58
2021/04/21 02:28:32;;;;;;;12.23;7.67;;;;;;;7.27;85.47;100591.91;1840979;78;21008;-57
2021/04/21 02:31:25;;;;;;;12.35;7.83;;;;;;;7.26;85.57;100593.67;1841131;78;24094;-57
2021/04/21 02:34:07;;;;;;;13.05;7.70;;;;;;;7.23;85.68;100596.89;1841111;78;21178;-57
2021/04/21 02:37:04;;;;;;;12.33;7.55;;;;;;;7.22;85.62;100594.67;1840911;78;21206;-57
2021/04/21 02:40:12;;;;;;;10.93;7.62;;;;;;;7.21;85.87;100597.39;1840678;78;21370;-57
2021/04/21 02:43:02;;;;;;;14.58;8.65;;;;;;;7.20;85.82;100603.64;1840979;78;20950;-57
2021/04/21 02:45:56;;;;;;;11.68;7.62;;;;;;;7.20;85.91;100603.64;1841000;78;21053;-56
2021/04/21 02:48:35;;;;;;;12.70;8.00;;;;;;;7.19;85.89;100612.55;1841088;78;21100;-57
2021/04/21 02:51:27;;;;;;;11.90;7.22;;;;;;;7.17;85.93;100610.77;1841031;78;21127;-57
2021/04/21 02:54:21;;;;;;;14.80;7.95;;;;;;;7.16;86.05;100613.02;1841013;78;21349;-57
2021/04/21 02:56:56;;;;;;;11.53;7.45;;;;;;;7.15;86.12;100619.26;1837028;78;21471;-57
2021/04/21 02:59:39;;;;;;;13.28;7.72;;;;;;;7.14;86.14;100620.17;1828078;78;21094;-57
2021/04/21 03:02:24;;;;;;;13.35;8.40;;;;;;;7.12;86.09;100622.00;1828280;78;21003;-57
2021/04/21 03:05:03;;;;;;;14.03;7.90;;;;;;;7.10;86.03;100629.16;1831086;77;21078;-57
2021/04/21 03:08:18;;;;;;;12.10;7.90;;;;;;;7.10;86.07;100633.16;1831331;78;21746;-56
2021/04/21 03:11:15;;;;;;;15.53;8.15;;;;;;;7.10;86.14;100631.83;1831512;78;20932;-57
2021/04/21 03:14:03;;;;;;;15.90;8.03;;;;;;;7.09;86.12;100636.73;1831350;77;21133;-58
2021/04/21 03:16:36;;;;;;;11.25;7.60;;;;;;;7.09;86.17;100640.73;1830733;77;20983;-58
2021/04/21 03:19:06;;;;;;;17.98;7.92;;;;;;;7.10;86.14;100642.48;1830531;77;21156;-56
2021/04/21 03:21:40;;;;;;;14.10;7.65;;;;;;;7.12;86.07;100642.00;1830793;77;22215;-57
2021/04/21 03:24:15;;;;;;;15.08;7.92;;;;;;;7.17;85.96;100649.91;1817057;78;21070;-57
2021/04/21 03:26:46;;;;;;;12.15;7.87;;;;;;;7.22;85.83;100649.80;1830663;77;21150;-57
2021/04/21 03:29:31;;;;;;;12.23;7.90;;;;;;;7.28;85.66;100654.52;1830701;78;21150;-57
2021/04/21 03:31:59;;;;;;;12.00;7.65;;;;;;;7.35;85.44;100660.59;1830500;77;21049;-57
2021/04/21 03:34:27;;;;;;;12.40;7.67;;;;;;;7.41;85.05;100664.48;1790639;78;21362;-57
2021/04/21 03:36:55;;;;;;;16.52;8.00;;;;;;;7.50;84.86;100662.50;1816864;78;21082;-57
2021/04/21 03:39:23;;;;;;;11.85;7.30;;;;;;;7.54;84.29;100665.06;1830753;78;20983;-57
2021/04/21 03:41:50;;;;;;;11.97;7.92;;;;;;;7.60;84.07;100661.34;1830720;78;21132;-56
2021/04/21 03:44:18;;;;;;;15.93;8.38;;;;;;;7.69;83.90;100668.26;1830695;77;21047;-56
2021/04/21 03:46:46;;;;;;;15.32;7.28;;;;;;;7.79;83.64;100667.58;1830794;78;22359;-56
2021/04/21 03:49:13;;;;;;;14.15;7.55;;;;;;;7.89;82.70;100669.97;1830569;77;21142;-57
2021/04/21 03:51:41;;;;;;;12.35;7.05;;;;;;;7.97;82.32;100673.80;1830769;78;21031;-57
2021/04/21 03:54:09;;;;;;;10.63;7.35;;;;;;;8.07;82.01;100678.88;1830649;77;20912;-56
2021/04/21 03:56:37;;;;;;;12.90;7.83;;;;;;;8.18;81.78;100683.50;1831382;77;21094;-57
2021/04/21 03:59:04;;;;;;;16.30;8.48;;;;;;;8.30;81.41;100685.87;1833282;78;21327;-57
2021/04/21 04:01:33;;;;;;;12.07;7.97;;;;;;;8.42;80.37;100685.10;1833250;78;21023;-59
2021/04/21 04:04:03;;;;;;;13.62;8.03;;;;;;;8.52;80.11;100686.66;1831901;78;20873;-57
2021/04/21 04:06:43;;;;;;;11.38;7.17;;;;;;;8.63;79.57;100693.48;1830469;77;21168;-57
2021/04/21 04:09:12;;;;;;;14.87;7.75;;;;;;;8.76;79.05;100698.91;1830466;77;20920;-57
2021/04/21 04:11:46;;;;;;;13.58;6.97;;;;;;;8.88;78.17;100699.88;1830413;78;21266;-57
2021/04/21 04:14:24;;;;;;;11.20;7.42;;;;;;;9.02;77.72;100701.29;1830467;78;21190;-58
2021/04/21 04:16:57;;;;;;;12.80;7.90;;;;;;;9.21;77.15;100696.73;1830440;78;20932;-57
2021/04/21 04:19:25;;;;;;;11.53;7.35;;;;;;;9.37;76.54;100707.36;1830433;78;21090;-58
2021/04/21 04:22:05;;;;;;;11.57;7.30;;;;;;;9.52;76.18;100709.16;1830523;77;21173;-57
2021/04/21 04:24:43;;;;;;;10.82;7.55;;;;;;;9.62;75.54;100720.01;1830317;77;21325;-57
2021/04/21 04:27:22;;;;;;;12.43;7.75;;;;;;;9.74;75.20;100718.27;1830350;78;21008;-57
2021/04/21 04:29:51;;;;;;;12.37;7.55;;;;;;;9.86;74.84;100729.04;1830395;78;20925;-58
2021/04/21 04:32:21;;;;;;;11.78;7.47;;;;;;;9.99;74.71;100726.83;1830460;78;21497;-58
2021/04/21 04:34:55;;;;;;;9.85;6.83;;;;;;;10.12;74.31;100727.78;1830510;77;21471;-58
2021/04/21 04:37:24;;;;;;;10.53;7.53;;;;;;;10.24;73.96;100734.05;1830463;77;21402;-58
2021/04/21 04:39:52;;;;;;;11.85;7.42;;;;;;;10.40;73.30;100738.48;1830449;77;21459;-58
2021/04/21 04:42:20;;;;;;;14.70;7.22;;;;;;;10.54;72.77;100743.36;1830459;78;20924;-58
2021/04/21 04:44:49;;;;;;;10.70;6.90;;;;;;;10.66;72.13;100739.81;1830301;78;21075;-59
2021/04/21 04:47:40;;;;;;;11.80;7.72;;;;;;;10.78;71.58;100744.75;1830472;78;21114;-58
2021/04/21 04:50:15;;;;;;;11.50;6.87;;;;;;;10.86;70.98;100741.80;1830475;78;21190;-60
2021/04/21 04:52:45;;;;;;;11.20;7.12;;;;;;;10.95;70.47;100743.27;1830006;77;21228;-59
2021/04/21 04:55:17;;;;;;;13.28;7.20;;;;;;;11.05;70.05;100743.32;1830483;78;21130;-59
2021/04/21 04:57:48;;;;;;;12.95;7.37;;;;;;;11.18;69.30;100743.28;1831493;77;21135;-59
2021/04/21 05:00:21;;;;;;;11.68;7.45;;;;;;;11.29;69.13;100744.67;1832243;78;21563;-59
2021/04/21 05:02:59;;;;;;;14.68;7.95;;;;;;;11.37;68.78;100746.58;1832188;78;22249;-59
2021/04/21 05:05:28;;;;;;;15.05;8.50;;;;;;;11.52;68.76;100746.94;1831972;77;21012;-59
2021/04/21 05:07:59;;;;;;;14.30;8.10;;;;;;;11.68;68.35;100753.91;1832104;78;20972;-59
2021/04/21 05:10:36;;;;;;;10.80;7.42;;;;;;;11.84;67.89;100758.23;1832038;78;21096;-59
2021/04/21 05:13:04;;;;;;;15.32;8.25;;;;;;;11.95;67.07;100762.69;1832187;78;21127;-59
2021/04/21 05:15:52;;;;;;;12.68;7.90;;;;;;;12.04;66.88;100757.44;1832039;78;21355;-59
2021/04/21 05:18:51;;;;;;;11.53;7.10;;;;;;;12.15;66.38;100753.83;1832124;78;20929;-58
2021/04/21 05:22:01;;;;;;;12.33;7.25;;;;;;;12.32;66.05;100761.20;1829672;78;20933;-58
2021/04/21 05:24:43;;;;;;;11.18;7.53;;;;;;;12.54;65.30;100760.29;1832045;78;21052;-58
2021/04/21 05:27:54;;;;;;;11.00;7.83;;;;;;;12.62;64.89;100765.34;1832182;78;21040;-59
2021/04/21 05:30:30;;;;;;;14.60;7.40;;;;;;;12.76;64.33;100764.73;1832047;78;21126;-58
2021/04/21 05:33:27;;;;;;;13.28;7.70;;;;;;;12.90;63.92;100761.42;1831804;77;21557;-60
2021/04/21 05:36:26;;;;;;;12.88;7.72;;;;;;;13.06;63.69;100762.95;1832168;78;20937;-59
2021/04/21 05:39:11;;;;;;;14.73;7.85;;;;;;;13.20;62.86;100771.73;1832082;77;21606;-58
2021/04/21 05:42:03;;;;;;;12.15;7.55;;;;;;;13.31;62.47;100775.28;1832095;78;21040;-58
2021/04/21 05:44:53;;;;;;;12.65;7.53;;;;;;;13.52;61.43;100777.50;1832129;78;22058;-58
2021/04/21 05:48:10;;;;;;;16.25;8.18;;;;;;;13.70;60.46;100770.36;1831998;78;21000;-59
2021/04/21 05:51:14;;;;;;;12.25;7.37;;;;;;;13.87;60.16;100773.58;1832048;77;20945;-58
2021/04/21 05:53:47;;;;;;;10.70;7.47;;;;;;;14.06;59.76;100775.87;1832158;77;20933;-58
2021/04/21 05:56:28;;;;;;;12.03;7.70;;;;;;;14.29;59.30;100778.29;1829356;78;21155;-58
2021/04/21 05:59:35;;;;;;;9.53;7.33;;;;;;;14.37;58.44;100775.67;1830345;78;21132;-59
2021/04/21 06:02:04;;;;;;;11.90;7.10;;;;;;;14.30;58.55;100777.80;1830443;78;25299;-58
2021/04/21 06:04:32;;;;;;;13.00;7.25;;;;;;;14.33;58.09;100782.57;1830040;77;21626;-57
2021/04/21 06:07:09;;;;;;;9.60;7.08;;;;;;;14.31;57.86;100784.48;1830302;77;21034;-58
2021/04/21 06:09:37;;;;;;;11.38;6.45;;;;;;;14.31;57.49;100785.83;1829985;78;21092;-58
2021/04/21 06:12:11;;;;;;;10.45;6.92;;;;;;;14.41;57.08;100786.70;1831866;78;21187;-59
2021/04/21 06:14:39;;;;;;;13.20;7.10;;;;;;;14.47;56.87;100786.37;1832134;78;20982;-59
2021/04/21 06:17:06;;;;;;;10.95;6.25;;;;;;;14.53;56.96;100792.83;1832087;78;20989;-59
2021/04/21 06:19:34;;;;;;;9.85;6.45;;;;;;;14.58;57.24;100793.46;1815995;78;21146;-59
2021/04/21 06:22:02;;;;;;;8.80;6.65;;;;;;;14.60;56.89;100795.60;1832112;78;21103;-58
2021/04/21 06:24:30;;;;;;;24.70;6.83;;;;;;;14.76;56.50;100796.20;1832051;78;22337;-58
2021/04/21 06:27:12;;;;;;;11.25;6.45;;;;;;;14.93;56.05;100798.50;1832108;77;21476;-59
2021/04/21 06:29:40;;;;;;;10.60;6.53;;;;;;;15.05;56.05;100801.89;1832099;78;21044;-58
2021/04/21 06:32:15;;;;;;;9.45;7.00;;;;;;;15.05;55.98;100801.89;1832102;78;21562;-59
2021/04/21 06:34:44;;;;;;;8.73;6.60;;;;;;;14.99;56.46;100803.57;1832267;78;21119;-59
2021/04/21 06:37:11;;;;;;;11.50;7.40;;;;;;;14.88;57.11;100799.59;1832122;78;22260;-59
2021/04/21 06:39:39;;;;;;;10.08;7.08;;;;;;;14.96;57.61;100807.78;1831964;77;21060;-59
2021/04/21 06:42:07;;;;;;;11.33;6.60;;;;;;;15.13;57.04;100809.09;1832094;77;21559;-59
2021/04/21 06:44:46;;;;;;;8.73;6.03;;;;;;;15.18;56.77;100805.69;1822802;78;21163;-58
2021/04/21 06:47:22;;;;;;;10.00;7.10;;;;;;;15.18;57.40;100812.91;1804047;78;21135;-58
2021/04/21 06:50:11;;;;;;;10.45;6.47;;;;;;;15.31;57.65;100809.06;1798516;79;21477;-58
2021/04/21 06:52:42;;;;;;;7.92;6.22;;;;;;;15.56;57.75;100810.42;1799430;79;21079;-59
2021/04/21 06:55:15;;;;;;;9.20;5.62;;;;;;;15.66;57.72;100803.56;1799369;79;21071;-59
2021/04/21 06:57:42;;;;;;;9.33;5.72;;;;;;;15.81;55.50;100814.49;1820840;78;21126;-58
2021/04/21 07:00:16;;;;;;;13.72;6.03;;;;;;;15.90;54.37;100809.44;1830437;78;20987;-58
2021/04/21 07:02:47;;;;;;;8.38;5.67;;;;;;;15.90;54.95;100808.59;1830467;78;21366;-59
2021/04/21 07:05:38;;;;;;;8.60;6.28;;;;;;;16.02;54.15;100818.69;1826959;77;21121;-58
2021/04/21 07:08:11;;;;;;;10.08;5.90;;;;;;;16.11;53.87;100823.20;1824332;78;21138;-59
2021/04/21 07:10:55;;;;;;;7.37;5.83;;;;;;;16.04;54.32;100819.50;1824363;78;21118;-58
2021/04/21 07:13:31;;;;;;;8.53;5.30;;;;;;;16.07;54.17;100818.93;1824639;78;21165;-57
2021/04/21 07:16:02;;;;;;;9.20;5.33;;;;;;;16.20;53.32;100820.45;1824323;78;21300;-58
2021/04/21 07:18:33;;;;;;;6.65;5.45;;;;;;;16.37;52.13;100826.22;1824239;78;21474;-59
2021/04/21 07:21:02;;;;;;;10.50;5.75;;;;;;;16.55;52.09;100826.50;1824372;78;21040;-58
2021/04/21 07:23:29;;;;;;;8.98;6.12;;;;;;;16.69;51.96;100831.56;1824361;78;21054;-59
2021/04/21 07:25:57;;;;;;;10.80;5.60;;;;;;;16.76;51.70;100837.02;1824371;78;21130;-59
2021/04/21 07:28:24;;;;;;;8.48;5.70;;;;;;;16.78;51.80;100831.03;1824351;78;21422;-58
2021/04/21 07:30:54;;;;;;;9.80;6.30;;;;;;;16.85;51.35;100833.74;1824257;78;21043;-59
2021/04/21 07:33:39;;;;;;;9.63;6.97;;;;;;;16.86;51.61;100831.42;1816425;78;21187;-59
2021/04/21 07:36:17;;;;;;;8.80;6.17;;;;;;;16.86;51.87;100832.78;1822191;76;21120;-58
2021/04/21 07:38:51;;;;;;;10.23;6.35;;;;;;;16.80;51.42;100838.58;1822640;78;21151;-59
2021/04/21 07:41:37;;;;;;;13.32;5.90;;;;;;;16.75;51.77;100840.69;1812228;77;22227;-58
2021/04/21 07:44:28;;;;;;;7.53;6.17;;;;;;;16.85;51.47;100841.87;1758156;81;21171;-58
2021/04/21 07:47:11;;;;;;;9.40;6.73;;;;;;;17.14;51.08;100848.77;1856827;76;27833;-58
2021/04/21 07:49:47;;;;;;;7.30;5.30;;;;;;;17.23;50.15;100839.16;1840882;77;20941;-59
2021/04/21 07:52:31;;;;;;;6.17;4.87;;;;;;;17.26;48.46;100850.31;1841175;78;21413;-59
2021/04/21 07:55:19;;;;;;;6.97;4.97;;;;;;;17.21;48.04;100847.88;1786773;78;20894;-59
2021/04/21 07:58:04;;;;;;;10.80;5.37;;;;;;;17.21;47.70;100853.30;1831805;78;21590;-59
2021/04/21 08:00:34;;;;;;;8.00;4.70;;;;;;;17.25;47.35;100853.98;1827133;78;21547;-59
2021/04/21 08:03:04;;;;;;;6.55;4.55;;;;;;;17.33;46.82;100853.02;1829504;78;21478;-60
2021/04/21 08:05:32;;;;;;;5.70;4.28;;;;;;;17.39;46.26;100851.30;1841014;78;21358;-59
2021/04/21 08:08:01;;;;;;;9.80;4.50;;;;;;;17.45;45.49;100852.27;1841055;78;21566;-59
2021/04/21 08:10:36;;;;;;;10.80;5.50;;;;;;;17.59;45.66;100850.55;1841184;78;21528;-59
2021/04/21 08:13:08;;;;;;;6.72;4.65;;;;;;;17.74;44.57;100850.91;1840900;78;21151;-58
2021/04/21 08:15:39;;;;;;;5.83;4.55;;;;;;;17.78;43.38;100847.98;1841100;78;21158;-59
2021/04/21 08:18:14;;;;;;;6.55;4.10;;;;;;;17.83;43.57;100854.02;1841113;78;21122;-60
2021/04/21 08:20:45;;;;;;;5.65;4.05;;;;;;;17.92;43.26;100850.70;1841062;78;21480;-58
2021/04/21 08:23:18;;;;;;;7.05;3.40;;;;;;;18.08;42.85;100849.74;1837909;78;21068;-59
2021/04/21 08:25:47;;;;;;;5.70;4.00;;;;;;;18.31;42.41;100855.00;1811594;78;21603;-60
2021/04/21 08:28:15;;;;;;;5.45;4.08;;;;;;;18.54;41.13;100858.91;1841086;78;21159;-59
2021/04/21 08:30:55;;;;;;;4.30;3.70;;;;;;;18.62;40.84;100861.11;1841036;78;21343;-60
2021/04/21 08:33:25;;;;;;;5.47;3.80;;;;;;;18.63;40.54;100860.14;1841001;78;21479;-58
2021/04/21 08:35:52;;;;;;;6.60;3.80;;;;;;;18.65;40.22;100866.80;1840962;78;21072;-59
2021/04/21 08:38:20;;;;;;;5.17;3.87;;;;;;;18.58;39.97;100863.16;1841057;78;21049;-59
2021/04/21 08:40:48;;;;;;;6.22;3.83;;;;;;;18.59;40.61;100865.40;1840939;78;21109;-59
2021/04/21 08:43:20;;;;;;;4.60;3.45;;;;;;;18.68;39.87;100858.45;1836671;76;21397;-59
2021/04/21 08:45:47;;;;;;;6.53;3.77;;;;;;;18.75;39.77;100862.52;1809554;78;21182;-60
2021/04/21 08:48:15;;;;;;;5.33;3.30;;;;;;;18.84;38.96;100858.30;1812485;79;22252;-60
2021/04/21 08:50:42;;;;;;;6.10;3.65;;;;;;;18.82;38.89;100853.46;1812591;79;22330;-60
2021/04/21 08:53:10;;;;;;;7.17;3.95;;;;;;;18.72;39.07;100862.72;1813654;79;21013;-59
2021/04/21 08:55:38;;;;;;;6.05;3.70;;;;;;;18.59;39.30;100855.39;1813719;79;21372;-58
2021/04/21 08:58:09;;;;;;;4.72;3.50;;;;;;;18.49;39.63;100854.28;1827897;78;21117;-58
2021/04/21 09:00:39;;;;;;;7.83;6.37;;;;;;;18.38;39.61;100848.69;1830471;78;20995;-58
2021/04/21 09:03:06;;;;;;;14.47;8.58;;;;;;;18.35;43.62;100846.18;1830367;78;21003;-59
2021/04/21 09:05:34;;;;;;;12.03;7.28;;;;;;;18.31;46.64;100844.14;1830492;78;21038;-58
2021/04/21 09:08:02;;;;;;;13.30;7.95;;;;;;;18.18;47.35;100842.73;1830338;78;21188;-59
2021/04/21 09:10:30;;;;;;;10.03;7.87;;;;;;;17.98;48.88;100846.22;1830417;78;20924;-59
2021/04/21 09:12:58;;;;;;;12.07;7.58;;;;;;;17.81;50.53;100846.47;1830407;78;21094;-58
2021/04/21 09:15:26;;;;;;;15.63;7.65;;;;;;;17.68;50.66;100844.99;1830336;78;21130;-58
2021/04/21 09:17:57;;;;;;;13.78;7.58;;;;;;;17.58;50.94;100836.60;1830483;78;21042;-59
2021/04/21 09:20:26;;;;;;;11.88;8.38;;;;;;;17.51;51.64;100836.58;1830396;77;21180;-57
2021/04/21 09:23:11;;;;;;;13.32;8.00;;;;;;;17.50;51.54;100845.69;1830448;77;21042;-57
2021/04/21 09:25:39;;;;;;;11.18;8.13;;;;;;;17.51;51.40;100842.00;1830195;77;21613;-59
2021/04/21 09:28:07;;;;;;;13.60;7.45;;;;;;;17.54;51.41;100845.41;1830405;77;21015;-59
2021/04/21 09:30:36;;;;;;;13.48;7.55;;;;;;;17.59;51.40;100839.70;1828900;77;21135;-58
2021/04/21 09:33:05;;;;;;;11.15;7.78;;;;;;;17.59;51.83;100838.34;1820838;77;21194;-58
2021/04/21 09:35:42;;;;;;;12.30;7.78;;;;;;;17.62;51.75;100838.14;1824511;77;21132;-59
2021/04/21 09:38:22;;;;;;;11.80;7.62;;;;;;;17.66;52.01;100838.33;1831486;77;21155;-57
2021/04/21 09:41:02;;;;;;;11.57;7.40;;;;;;;17.69;52.27;100840.84;1817029;77;20978;-58
2021/04/21 09:43:38;;;;;;;10.48;7.83;;;;;;;17.66;52.11;100834.27;1846146;77;21124;-58
2021/04/21 09:46:18;;;;;;;12.95;7.62;;;;;;;17.59;52.19;100839.20;1839589;76;22395;-58
2021/04/21 09:48:47;;;;;;;12.28;7.90;;;;;;;17.65;51.83;100832.52;1823685;77;21174;-59
2021/04/21 09:51:17;;;;;;;8.25;6.92;;;;;;;17.65;51.37;100843.37;1822139;77;22319;-59
2021/04/21 09:53:47;;;;;;;13.78;7.05;;;;;;;17.61;51.16;100844.53;1825020;77;21404;-52
2021/04/21 09:56:21;;;;;;;10.55;6.60;;;;;;;17.54;51.79;100844.52;1831704;77;21080;-58
2021/04/21 09:58:54;;;;;;;10.78;7.15;;;;;;;17.55;51.57;100850.33;1822534;76;22151;-58
2021/04/21 10:01:35;;;;;;;11.60;6.90;;;;;;;17.57;51.61;100840.25;1818475;76;21096;-58
2021/04/21 10:04:16;;;;;;;10.65;7.33;;;;;;;17.61;51.71;100842.68;1812859;79;21048;-60
2021/04/21 10:06:56;;;;;;;10.63;6.78;;;;;;;17.62;51.83;100836.79;1819865;77;21100;-58
2021/04/21 10:09:38;;;;;;;11.55;6.85;;;;;;;17.57;52.05;100829.41;1812920;79;21468;-58
2021/04/21 10:12:24;;;;;;;11.05;8.08;;;;;;;17.50;52.52;100849.75;1830291;77;21579;-52
2021/04/21 10:15:10;;;;;;;14.00;8.13;;;;;;;17.39;53.77;100843.17;1730922;81;21083;-53
2021/04/21 10:17:45;;;;;;;11.73;7.60;;;;;;;17.28;54.22;100842.95;1771221;80;21603;-53
2021/04/21 10:20:17;;;;;;;14.18;7.47;;;;;;;17.15;54.99;100845.55;1719447;80;21180;-53
2021/04/21 10:22:46;;;;;;;8.70;7.15;;;;;;;17.03;54.42;100848.53;1771561;80;21517;-53
2021/04/21 10:25:16;;;;;;;10.13;7.25;;;;;;;16.97;54.80;100840.25;1771672;80;21384;-52
2021/04/21 10:27:43;;;;;;;12.45;7.12;;;;;;;16.88;54.24;100843.03;1764364;80;21200;-52
2021/04/21 10:30:12;;;;;;;10.98;6.87;;;;;;;16.73;55.26;100853.45;1766499;80;21092;-51
2021/04/21 10:32:42;;;;;;;9.78;7.03;;;;;;;16.51;56.42;100843.00;1760975;80;20966;-51
2021/04/21 10:35:12;;;;;;;11.85;6.28;;;;;;;16.32;55.99;100849.02;1735630;80;21148;-52
2021/04/21 10:37:40;;;;;;;8.90;5.87;;;;;;;16.14;55.00;100844.19;1767673;78;21368;-51
2021/04/21 10:40:11;;;;;;;10.30;5.90;;;;;;;15.92;54.28;100853.98;1773537;80;21630;-51
2021/04/21 10:43:02;;;;;;;10.13;5.45;;;;;;;15.72;53.61;100848.31;1768478;80;21175;-51
2021/04/21 10:45:32;;;;;;;9.13;5.62;;;;;;;15.54;54.14;100852.87;1762643;80;21222;-53
2021/04/21 10:48:00;;;;;;;10.03;5.28;;;;;;;15.37;55.34;100853.79;1761215;80;21175;-53
2021/04/21 10:50:45;;;;;;;6.05;4.62;;;;;;;15.31;55.74;100846.42;1781641;80;21333;-52
2021/04/21 10:53:30;;;;;;;8.45;4.90;;;;;;;15.38;54.28;100860.48;1781831;80;21012;-53
2021/04/21 10:56:01;;;;;;;6.55;4.30;;;;;;;15.43;52.50;100857.04;1774760;80;21111;-53
2021/04/21 10:58:51;;;;;;;9.13;4.60;;;;;;;15.46;52.15;100862.73;1735691;81;21140;-53
2021/04/21 11:01:38;;;;;;;7.83;4.22;;;;;;;15.47;52.07;100862.67;1766124;81;21153;-51
2021/04/21 11:04:06;;;;;;;5.87;4.53;;;;;;;15.46;52.28;100864.97;1766132;81;21352;-52
2021/04/21 11:06:45;;;;;;;8.20;4.30;;;;;;;15.52;52.63;100855.67;1760204;80;21001;-52
2021/04/21 11:09:13;;;;;;;6.30;4.50;;;;;;;15.65;51.98;100855.88;1768731;80;21076;-53
2021/04/21 11:11:48;;;;;;;6.75;4.65;;;;;;;15.80;51.35;100851.45;1765962;80;21122;-53
2021/04/21 11:14:36;;;;;;;;;;;;;;;15.94;51.61;100852.06;1769859;80;21578;-52
2021/04/21 11:17:04;;;;;;;11.20;4.45;;;;;;;16.03;51.59;100858.32;1753244;80;22118;-52
2021/04/21 11:19:40;;;;;;;8.38;3.70;;;;;;;16.08;50.51;100850.42;1767487;80;21615;-53
2021/04/21 11:22:22;;;;;;;6.47;3.60;;;;;;;16.13;48.50;100849.67;1868670;75;28266;-52
2021/04/21 11:25:24;;;;;;;4.53;3.50;;;;;;;16.04;47.59;100864.13;1797034;77;21041;-53
2021/04/21 11:27:52;;;;;;;7.72;3.67;;;;;;;16.01;47.97;100868.32;1837581;77;22320;-53
2021/04/21 11:30:42;;;;;;;7.78;3.72;;;;;;;16.01;48.63;100876.93;1850826;77;21129;-51
2021/04/21 11:33:50;;;;;;;4.95;3.70;;;;;;;16.00;48.81;100877.39;1860269;77;20998;-52
2021/04/21 11:36:49;;;;;;;9.03;4.00;;;;;;;16.00;48.70;100890.06;1860537;77;20994;-52
2021/04/21 11:39:45;;;;;;;5.30;3.85;;;;;;;15.96;48.85;100886.64;1855664;77;21006;-53
2021/04/21 11:42:37;;;;;;;10.72;4.67;;;;;;;15.90;48.96;100895.10;1860496;77;21363;-53
2021/04/21 11:45:23;;;;;;;7.92;3.83;;;;;;;15.83;49.41;100897.73;1859825;77;20971;-53
2021/04/21 11:48:09;;;;;;;5.15;4.10;;;;;;;15.74;49.92;100902.66;1851753;77;21156;-53
2021/04/21 11:50:41;;;;;;;8.63;4.35;;;;;;;15.60;50.98;100896.66;1835527;77;21196;-53
2021/04/21 11:53:20;;;;;;;7.10;4.10;;;;;;;15.43;52.03;100887.22;1860036;77;21085;-52
2021/04/21 11:55:59;;;;;;;8.45;4.92;;;;;;;15.32;51.80;100897.25;1860157;77;21353;-52
2021/04/21 11:58:36;;;;;;;8.33;5.20;;;;;;;15.18;52.69;100892.11;1796095;78;21060;-52
2021/04/21 12:01:07;;;;;;;8.40;4.62;;;;;;;15.11;53.53;100889.80;1826534;78;21037;-53
2021/04/21 12:03:38;;;;;;;6.17;4.75;;;;;;;15.01;53.07;100889.41;1826423;77;21155;-53
2021/04/21 12:06:17;;;;;;;7.08;4.78;;;;;;;14.95;53.26;100891.08;1826802;78;20936;-53
2021/04/21 12:08:48;;;;;;;8.95;4.70;;;;;;;14.90;53.84;100894.86;1826664;78;21534;-53